sensor_id;sensor_type;location;lat;lon;timestamp;temperature;humidity
18260;DHT22;9256;52.236;5.712;2024-02-21T00:01:27;9.40;99.90
18260;DHT22;9256;52.236;5.712;2024-02-21T00:03:54;9.40;99.90
18260;DHT22;9256;52.236;5.712;2024-02-21T00:06:21;9.40;99.90
18260;DHT22;9256;52.236;5.712;2024-02-21T00:08:50;9.40;99.90
18260;DHT22;9256;52.236;5.712;2024-02-21T00:11:16;9.40;99.90
18260;DHT22;9256;52.236;5.712;2024-02-21T00:13:43;9.40;99.90
18260;DHT22;9256;52.236;5.712;2024-02-21T00:16:10;9.40;99.90
18260;DHT22;9256;52.236;5.712;2024-02-21T00:18:37;9.30;99.90
18260;DHT22;9256;52.236;5.712;2024-02-21T00:21:04;9.40;99.90
18260;DHT22;9256;52.236;5.712;2024-02-21T00:23:31;9.40;99.90
18260;DHT22;9256;52.236;5.712;2024-02-21T00:25:59;9.30;99.90
18260;DHT22;9256;52.236;5.712;2024-02-21T00:28:26;9.30;99.90
18260;DHT22;9256;52.236;5.712;2024-02-21T00:30:53;9.30;99.90
18260;DHT22;9256;52.236;5.712;2024-02-21T00:33:20;9.30;99.90
18260;DHT22;9256;52.236;5.712;2024-02-21T00:35:47;9.30;99.90
18260;DHT22;9256;52.236;5.712;2024-02-21T00:38:14;9.30;99.90
18260;DHT22;9256;52.236;5.712;2024-02-21T00:40:41;9.30;99.90
18260;DHT22;9256;52.236;5.712;2024-02-21T00:43:09;9.40;99.90
18260;DHT22;9256;52.236;5.712;2024-02-21T00:45:36;9.40;99.90
18260;DHT22;9256;52.236;5.712;2024-02-21T00:48:04;9.30;99.90
18260;DHT22;9256;52.236;5.712;2024-02-21T00:50:31;9.30;99.90
18260;DHT22;9256;52.236;5.712;2024-02-21T00:52:57;9.30;99.90
18260;DHT22;9256;52.236;5.712;2024-02-21T00:55:24;9.30;99.90
18260;DHT22;9256;52.236;5.712;2024-02-21T00:57:51;9.20;99.90
18260;DHT22;9256;52.236;5.712;2024-02-21T01:00:20;9.30;99.90
18260;DHT22;9256;52.236;5.712;2024-02-21T01:02:47;9.30;99.90
18260;DHT22;9256;52.236;5.712;2024-02-21T01:05:14;9.30;99.90
18260;DHT22;9256;52.236;5.712;2024-02-21T01:07:41;9.30;99.90
18260;DHT22;9256;52.236;5.712;2024-02-21T01:10:09;9.20;99.90
18260;DHT22;9256;52.236;5.712;2024-02-21T01:12:36;9.20;99.90
18260;DHT22;9256;52.236;5.712;2024-02-21T01:15:03;9.30;99.90
18260;DHT22;9256;52.236;5.712;2024-02-21T01:17:32;9.30;99.90
18260;DHT22;9256;52.236;5.712;2024-02-21T01:19:59;9.30;99.90
18260;DHT22;9256;52.236;5.712;2024-02-21T01:22:26;9.30;99.90
18260;DHT22;9256;52.236;5.712;2024-02-21T01:24:53;9.20;99.90
18260;DHT22;9256;52.236;5.712;2024-02-21T01:27:20;9.20;99.90
18260;DHT22;9256;52.236;5.712;2024-02-21T01:29:47;9.30;99.90
18260;DHT22;9256;52.236;5.712;2024-02-21T01:32:15;9.20;99.90
18260;DHT22;9256;52.236;5.712;2024-02-21T01:34:43;9.30;99.90
18260;DHT22;9256;52.236;5.712;2024-02-21T01:37:10;9.20;99.90
18260;DHT22;9256;52.236;5.712;2024-02-21T01:39:37;9.20;99.90
18260;DHT22;9256;52.236;5.712;2024-02-21T01:42:04;9.30;99.90
18260;DHT22;9256;52.236;5.712;2024-02-21T01:44:31;9.30;99.90
18260;DHT22;9256;52.236;5.712;2024-02-21T01:46:58;9.30;99.90
18260;DHT22;9256;52.236;5.712;2024-02-21T01:49:26;9.20;99.90
18260;DHT22;9256;52.236;5.712;2024-02-21T01:51:54;9.20;99.90
18260;DHT22;9256;52.236;5.712;2024-02-21T01:54:22;9.20;99.90
18260;DHT22;9256;52.236;5.712;2024-02-21T01:56:49;9.30;99.90
18260;DHT22;9256;52.236;5.712;2024-02-21T01:59:18;9.30;99.90
18260;DHT22;9256;52.236;5.712;2024-02-21T02:01:46;9.30;99.90
18260;DHT22;9256;52.236;5.712;2024-02-21T02:04:15;9.30;99.90
18260;DHT22;9256;52.236;5.712;2024-02-21T02:06:42;9.30;99.90
18260;DHT22;9256;52.236;5.712;2024-02-21T02:09:10;9.20;99.90
18260;DHT22;9256;52.236;5.712;2024-02-21T02:11:38;9.20;99.90
18260;DHT22;9256;52.236;5.712;2024-02-21T02:14:05;9.30;99.90
18260;DHT22;9256;52.236;5.712;2024-02-21T02:16:32;9.30;99.90
18260;DHT22;9256;52.236;5.712;2024-02-21T02:18:59;9.30;99.90
18260;DHT22;9256;52.236;5.712;2024-02-21T02:21:29;9.30;99.90
18260;DHT22;9256;52.236;5.712;2024-02-21T02:23:58;9.30;99.90
18260;DHT22;9256;52.236;5.712;2024-02-21T02:26:25;9.30;99.90
18260;DHT22;9256;52.236;5.712;2024-02-21T02:28:52;9.30;99.90
18260;DHT22;9256;52.236;5.712;2024-02-21T02:31:20;9.30;99.90
18260;DHT22;9256;52.236;5.712;2024-02-21T02:33:47;9.30;99.90
18260;DHT22;9256;52.236;5.712;2024-02-21T02:36:14;9.20;99.90
18260;DHT22;9256;52.236;5.712;2024-02-21T02:38:41;9.30;99.90
18260;DHT22;9256;52.236;5.712;2024-02-21T02:41:09;9.20;99.90
18260;DHT22;9256;52.236;5.712;2024-02-21T02:43:36;9.20;99.90
18260;DHT22;9256;52.236;5.712;2024-02-21T02:46:03;9.20;99.90
18260;DHT22;9256;52.236;5.712;2024-02-21T02:48:30;9.30;99.90
18260;DHT22;9256;52.236;5.712;2024-02-21T02:50:57;9.20;99.90
18260;DHT22;9256;52.236;5.712;2024-02-21T02:53:24;9.20;99.90
18260;DHT22;9256;52.236;5.712;2024-02-21T02:55:51;9.20;99.90
18260;DHT22;9256;52.236;5.712;2024-02-21T02:58:19;9.10;99.90
18260;DHT22;9256;52.236;5.712;2024-02-21T03:00:46;9.10;99.90
18260;DHT22;9256;52.236;5.712;2024-02-21T03:03:13;9.10;99.90
18260;DHT22;9256;52.236;5.712;2024-02-21T03:05:40;9.20;99.90
18260;DHT22;9256;52.236;5.712;2024-02-21T03:08:07;9.20;99.90
18260;DHT22;9256;52.236;5.712;2024-02-21T03:10:34;9.20;99.90
18260;DHT22;9256;52.236;5.712;2024-02-21T03:13:01;9.20;99.90
18260;DHT22;9256;52.236;5.712;2024-02-21T03:15:29;9.10;99.90
18260;DHT22;9256;52.236;5.712;2024-02-21T03:17:56;9.20;99.90
18260;DHT22;9256;52.236;5.712;2024-02-21T03:20:23;9.10;99.90
18260;DHT22;9256;52.236;5.712;2024-02-21T03:22:49;9.20;99.90
18260;DHT22;9256;52.236;5.712;2024-02-21T03:25:16;9.30;99.90
18260;DHT22;9256;52.236;5.712;2024-02-21T03:27:45;9.20;99.90
18260;DHT22;9256;52.236;5.712;2024-02-21T03:30:13;9.20;99.90
18260;DHT22;9256;52.236;5.712;2024-02-21T03:32:41;9.20;99.90
18260;DHT22;9256;52.236;5.712;2024-02-21T03:35:08;9.20;99.90
18260;DHT22;9256;52.236;5.712;2024-02-21T03:37:35;9.10;99.90
18260;DHT22;9256;52.236;5.712;2024-02-21T03:40:02;9.20;99.90
18260;DHT22;9256;52.236;5.712;2024-02-21T03:42:29;9.20;99.90
18260;DHT22;9256;52.236;5.712;2024-02-21T03:44:57;9.20;99.90
18260;DHT22;9256;52.236;5.712;2024-02-21T03:47:24;9.20;99.90
18260;DHT22;9256;52.236;5.712;2024-02-21T03:49:52;9.20;99.90
18260;DHT22;9256;52.236;5.712;2024-02-21T03:52:19;9.20;99.90
18260;DHT22;9256;52.236;5.712;2024-02-21T03:54:46;9.20;99.90
18260;DHT22;9256;52.236;5.712;2024-02-21T03:57:12;9.20;99.90
18260;DHT22;9256;52.236;5.712;2024-02-21T03:59:39;9.20;99.90
18260;DHT22;9256;52.236;5.712;2024-02-21T04:02:06;9.30;99.90
18260;DHT22;9256;52.236;5.712;2024-02-21T04:04:34;9.20;99.90
18260;DHT22;9256;52.236;5.712;2024-02-21T04:07:04;9.20;99.90
18260;DHT22;9256;52.236;5.712;2024-02-21T04:09:32;9.10;99.90
18260;DHT22;9256;52.236;5.712;2024-02-21T04:12:00;9.20;99.90
18260;DHT22;9256;52.236;5.712;2024-02-21T04:14:27;9.20;99.90
18260;DHT22;9256;52.236;5.712;2024-02-21T04:16:54;9.20;99.90
18260;DHT22;9256;52.236;5.712;2024-02-21T04:19:21;9.20;99.90
18260;DHT22;9256;52.236;5.712;2024-02-21T04:21:48;9.20;99.90
18260;DHT22;9256;52.236;5.712;2024-02-21T04:24:16;9.20;99.90
18260;DHT22;9256;52.236;5.712;2024-02-21T04:26:43;9.10;99.90
18260;DHT22;9256;52.236;5.712;2024-02-21T04:29:10;9.00;99.90
18260;DHT22;9256;52.236;5.712;2024-02-21T04:31:37;9.00;99.90
18260;DHT22;9256;52.236;5.712;2024-02-21T04:34:06;9.10;99.90
18260;DHT22;9256;52.236;5.712;2024-02-21T04:36:33;9.10;99.90
18260;DHT22;9256;52.236;5.712;2024-02-21T04:39:00;9.00;99.90
18260;DHT22;9256;52.236;5.712;2024-02-21T04:41:28;9.10;99.90
18260;DHT22;9256;52.236;5.712;2024-02-21T04:43:55;9.00;99.90
18260;DHT22;9256;52.236;5.712;2024-02-21T04:46:22;9.00;99.90
18260;DHT22;9256;52.236;5.712;2024-02-21T04:48:49;9.00;99.90
18260;DHT22;9256;52.236;5.712;2024-02-21T04:51:15;9.10;99.90
18260;DHT22;9256;52.236;5.712;2024-02-21T04:53:42;9.10;99.90
18260;DHT22;9256;52.236;5.712;2024-02-21T04:56:10;9.10;99.90
18260;DHT22;9256;52.236;5.712;2024-02-21T04:58:39;9.00;99.90
18260;DHT22;9256;52.236;5.712;2024-02-21T05:01:06;9.10;99.90
18260;DHT22;9256;52.236;5.712;2024-02-21T05:03:33;9.00;99.90
18260;DHT22;9256;52.236;5.712;2024-02-21T05:06:00;9.00;99.90
18260;DHT22;9256;52.236;5.712;2024-02-21T05:08:27;9.00;99.90
18260;DHT22;9256;52.236;5.712;2024-02-21T05:10:54;9.10;99.90
18260;DHT22;9256;52.236;5.712;2024-02-21T05:13:21;9.00;99.90
18260;DHT22;9256;52.236;5.712;2024-02-21T05:15:52;9.00;99.90
18260;DHT22;9256;52.236;5.712;2024-02-21T05:18:19;9.00;99.90
18260;DHT22;9256;52.236;5.712;2024-02-21T05:20:46;9.00;99.90
18260;DHT22;9256;52.236;5.712;2024-02-21T05:23:14;9.10;99.90
18260;DHT22;9256;52.236;5.712;2024-02-21T05:25:41;9.00;99.90
18260;DHT22;9256;52.236;5.712;2024-02-21T05:28:08;9.00;99.90
18260;DHT22;9256;52.236;5.712;2024-02-21T05:30:35;9.00;99.90
18260;DHT22;9256;52.236;5.712;2024-02-21T05:33:06;9.10;99.90
18260;DHT22;9256;52.236;5.712;2024-02-21T05:35:35;9.10;99.90
18260;DHT22;9256;52.236;5.712;2024-02-21T05:38:03;9.10;99.90
18260;DHT22;9256;52.236;5.712;2024-02-21T05:40:32;9.10;99.90
18260;DHT22;9256;52.236;5.712;2024-02-21T05:42:59;9.00;99.90
18260;DHT22;9256;52.236;5.712;2024-02-21T05:45:28;9.10;99.90
18260;DHT22;9256;52.236;5.712;2024-02-21T05:47:55;9.10;99.90
18260;DHT22;9256;52.236;5.712;2024-02-21T05:50:24;9.00;99.90
18260;DHT22;9256;52.236;5.712;2024-02-21T05:52:52;9.00;99.90
18260;DHT22;9256;52.236;5.712;2024-02-21T05:55:19;9.00;99.90
18260;DHT22;9256;52.236;5.712;2024-02-21T05:57:46;9.00;99.90
18260;DHT22;9256;52.236;5.712;2024-02-21T06:00:14;8.90;99.90
18260;DHT22;9256;52.236;5.712;2024-02-21T06:02:41;8.90;99.90
18260;DHT22;9256;52.236;5.712;2024-02-21T06:05:08;8.90;99.90
18260;DHT22;9256;52.236;5.712;2024-02-21T06:07:36;9.00;99.90
18260;DHT22;9256;52.236;5.712;2024-02-21T06:10:04;8.90;99.90
18260;DHT22;9256;52.236;5.712;2024-02-21T06:12:31;8.90;99.90
18260;DHT22;9256;52.236;5.712;2024-02-21T06:14:58;8.80;99.90
18260;DHT22;9256;52.236;5.712;2024-02-21T06:17:25;8.90;99.90
18260;DHT22;9256;52.236;5.712;2024-02-21T06:19:52;8.90;99.90
18260;DHT22;9256;52.236;5.712;2024-02-21T06:22:18;8.90;99.90
18260;DHT22;9256;52.236;5.712;2024-02-21T06:24:47;8.80;99.90
18260;DHT22;9256;52.236;5.712;2024-02-21T06:27:14;8.90;99.90
18260;DHT22;9256;52.236;5.712;2024-02-21T06:29:42;8.90;99.90
18260;DHT22;9256;52.236;5.712;2024-02-21T06:32:09;8.90;99.90
18260;DHT22;9256;52.236;5.712;2024-02-21T06:34:35;8.80;99.90
18260;DHT22;9256;52.236;5.712;2024-02-21T06:37:03;8.80;99.90
18260;DHT22;9256;52.236;5.712;2024-02-21T06:39:29;8.70;99.90
18260;DHT22;9256;52.236;5.712;2024-02-21T06:41:58;8.70;99.90
18260;DHT22;9256;52.236;5.712;2024-02-21T06:44:26;8.70;99.90
18260;DHT22;9256;52.236;5.712;2024-02-21T06:46:54;8.80;99.90
18260;DHT22;9256;52.236;5.712;2024-02-21T06:49:21;8.80;99.90
18260;DHT22;9256;52.236;5.712;2024-02-21T06:51:48;8.70;99.90
18260;DHT22;9256;52.236;5.712;2024-02-21T06:54:15;8.80;99.90
18260;DHT22;9256;52.236;5.712;2024-02-21T06:56:44;8.70;99.90
18260;DHT22;9256;52.236;5.712;2024-02-21T06:59:12;8.70;99.90
18260;DHT22;9256;52.236;5.712;2024-02-21T07:01:45;8.80;99.90
18260;DHT22;9256;52.236;5.712;2024-02-21T07:04:15;8.70;99.90
18260;DHT22;9256;52.236;5.712;2024-02-21T07:06:42;8.70;99.90
18260;DHT22;9256;52.236;5.712;2024-02-21T07:09:09;8.70;99.90
18260;DHT22;9256;52.236;5.712;2024-02-21T07:11:41;8.80;99.90
18260;DHT22;9256;52.236;5.712;2024-02-21T07:14:08;8.80;99.90
18260;DHT22;9256;52.236;5.712;2024-02-21T07:16:36;8.80;99.90
18260;DHT22;9256;52.236;5.712;2024-02-21T07:19:03;8.70;99.90
18260;DHT22;9256;52.236;5.712;2024-02-21T07:21:33;8.80;99.90
18260;DHT22;9256;52.236;5.712;2024-02-21T07:24:00;8.80;99.90
18260;DHT22;9256;52.236;5.712;2024-02-21T07:26:27;8.80;99.90
18260;DHT22;9256;52.236;5.712;2024-02-21T07:28:54;8.90;99.90
18260;DHT22;9256;52.236;5.712;2024-02-21T07:31:20;8.80;99.90
18260;DHT22;9256;52.236;5.712;2024-02-21T07:33:49;8.80;99.90
18260;DHT22;9256;52.236;5.712;2024-02-21T07:36:23;8.80;99.90
18260;DHT22;9256;52.236;5.712;2024-02-21T07:38:50;8.80;99.90
18260;DHT22;9256;52.236;5.712;2024-02-21T07:41:18;8.80;99.90
18260;DHT22;9256;52.236;5.712;2024-02-21T07:43:45;8.80;99.90
18260;DHT22;9256;52.236;5.712;2024-02-21T07:46:13;8.80;99.90
18260;DHT22;9256;52.236;5.712;2024-02-21T07:48:40;8.80;99.90
18260;DHT22;9256;52.236;5.712;2024-02-21T07:51:08;8.80;99.90
18260;DHT22;9256;52.236;5.712;2024-02-21T07:53:35;8.90;99.90
18260;DHT22;9256;52.236;5.712;2024-02-21T07:56:04;8.90;99.90
18260;DHT22;9256;52.236;5.712;2024-02-21T07:58:31;8.90;99.90
18260;DHT22;9256;52.236;5.712;2024-02-21T08:00:57;8.90;99.90
18260;DHT22;9256;52.236;5.712;2024-02-21T08:03:26;8.90;99.90
18260;DHT22;9256;52.236;5.712;2024-02-21T08:05:52;9.00;99.90
18260;DHT22;9256;52.236;5.712;2024-02-21T08:08:21;9.00;99.90
18260;DHT22;9256;52.236;5.712;2024-02-21T08:10:48;9.00;99.90
18260;DHT22;9256;52.236;5.712;2024-02-21T08:13:15;9.00;99.90
18260;DHT22;9256;52.236;5.712;2024-02-21T08:15:42;9.00;99.90
18260;DHT22;9256;52.236;5.712;2024-02-21T08:18:09;9.00;99.90
18260;DHT22;9256;52.236;5.712;2024-02-21T08:20:36;9.00;99.90
18260;DHT22;9256;52.236;5.712;2024-02-21T08:23:03;9.00;99.90
18260;DHT22;9256;52.236;5.712;2024-02-21T08:25:32;9.10;99.90
18260;DHT22;9256;52.236;5.712;2024-02-21T08:27:59;9.20;99.90
18260;DHT22;9256;52.236;5.712;2024-02-21T08:30:26;9.10;99.90
18260;DHT22;9256;52.236;5.712;2024-02-21T08:32:53;9.20;99.90
18260;DHT22;9256;52.236;5.712;2024-02-21T08:35:20;9.20;99.90
18260;DHT22;9256;52.236;5.712;2024-02-21T08:37:48;9.20;99.90
18260;DHT22;9256;52.236;5.712;2024-02-21T08:40:15;9.20;99.90
18260;DHT22;9256;52.236;5.712;2024-02-21T08:42:47;9.20;99.90
18260;DHT22;9256;52.236;5.712;2024-02-21T08:45:14;9.30;99.90
18260;DHT22;9256;52.236;5.712;2024-02-21T08:47:42;9.20;99.90
18260;DHT22;9256;52.236;5.712;2024-02-21T08:50:10;9.20;99.90
18260;DHT22;9256;52.236;5.712;2024-02-21T08:52:37;9.20;99.90
18260;DHT22;9256;52.236;5.712;2024-02-21T08:55:05;9.30;99.90
18260;DHT22;9256;52.236;5.712;2024-02-21T08:57:32;9.20;99.90
18260;DHT22;9256;52.236;5.712;2024-02-21T09:00:05;9.30;99.90
18260;DHT22;9256;52.236;5.712;2024-02-21T09:02:36;9.30;99.90
18260;DHT22;9256;52.236;5.712;2024-02-21T09:05:04;9.30;99.90
18260;DHT22;9256;52.236;5.712;2024-02-21T09:07:31;9.30;99.90
18260;DHT22;9256;52.236;5.712;2024-02-21T09:09:58;9.30;99.90
18260;DHT22;9256;52.236;5.712;2024-02-21T09:12:26;9.40;99.90
18260;DHT22;9256;52.236;5.712;2024-02-21T09:14:53;9.40;99.90
18260;DHT22;9256;52.236;5.712;2024-02-21T09:17:21;9.40;99.90
18260;DHT22;9256;52.236;5.712;2024-02-21T09:19:49;9.50;99.90
18260;DHT22;9256;52.236;5.712;2024-02-21T09:22:16;9.50;99.90
18260;DHT22;9256;52.236;5.712;2024-02-21T09:24:43;9.40;99.90
18260;DHT22;9256;52.236;5.712;2024-02-21T09:27:10;9.50;99.90
18260;DHT22;9256;52.236;5.712;2024-02-21T09:29:37;9.50;99.90
18260;DHT22;9256;52.236;5.712;2024-02-21T09:32:05;9.50;99.90
18260;DHT22;9256;52.236;5.712;2024-02-21T09:34:33;9.50;99.90
18260;DHT22;9256;52.236;5.712;2024-02-21T09:37:00;9.60;99.90
18260;DHT22;9256;52.236;5.712;2024-02-21T09:39:27;9.50;99.90
18260;DHT22;9256;52.236;5.712;2024-02-21T09:41:59;9.60;99.90
18260;DHT22;9256;52.236;5.712;2024-02-21T09:44:36;9.70;99.90
18260;DHT22;9256;52.236;5.712;2024-02-21T09:47:04;9.70;99.90
18260;DHT22;9256;52.236;5.712;2024-02-21T09:49:34;9.60;99.90
18260;DHT22;9256;52.236;5.712;2024-02-21T09:52:04;9.70;99.90
18260;DHT22;9256;52.236;5.712;2024-02-21T09:54:33;9.70;99.90
18260;DHT22;9256;52.236;5.712;2024-02-21T09:57:00;9.80;99.90
18260;DHT22;9256;52.236;5.712;2024-02-21T09:59:28;9.90;99.90
18260;DHT22;9256;52.236;5.712;2024-02-21T10:01:55;9.80;99.90
18260;DHT22;9256;52.236;5.712;2024-02-21T10:04:23;9.80;99.90
18260;DHT22;9256;52.236;5.712;2024-02-21T10:06:53;9.90;99.90
18260;DHT22;9256;52.236;5.712;2024-02-21T10:09:21;9.90;99.90
18260;DHT22;9256;52.236;5.712;2024-02-21T10:11:48;10.00;99.90
18260;DHT22;9256;52.236;5.712;2024-02-21T10:14:15;10.00;99.90
18260;DHT22;9256;52.236;5.712;2024-02-21T10:16:46;10.10;99.90
18260;DHT22;9256;52.236;5.712;2024-02-21T10:19:18;10.10;99.90
18260;DHT22;9256;52.236;5.712;2024-02-21T10:22:00;10.10;99.90
18260;DHT22;9256;52.236;5.712;2024-02-21T10:24:29;10.00;99.90
18260;DHT22;9256;52.236;5.712;2024-02-21T10:27:03;10.10;99.90
18260;DHT22;9256;52.236;5.712;2024-02-21T10:29:34;10.10;99.90
18260;DHT22;9256;52.236;5.712;2024-02-21T10:32:08;10.20;99.90
18260;DHT22;9256;52.236;5.712;2024-02-21T10:34:35;10.20;99.90
18260;DHT22;9256;52.236;5.712;2024-02-21T10:37:04;10.20;99.90
18260;DHT22;9256;52.236;5.712;2024-02-21T10:39:32;10.20;99.90
18260;DHT22;9256;52.236;5.712;2024-02-21T10:42:00;10.20;99.90
18260;DHT22;9256;52.236;5.712;2024-02-21T10:44:30;10.20;99.90
18260;DHT22;9256;52.236;5.712;2024-02-21T10:46:57;10.20;99.90
18260;DHT22;9256;52.236;5.712;2024-02-21T10:49:26;10.30;99.90
18260;DHT22;9256;52.236;5.712;2024-02-21T10:51:55;10.20;99.90
18260;DHT22;9256;52.236;5.712;2024-02-21T10:54:39;10.20;99.90
18260;DHT22;9256;52.236;5.712;2024-02-21T10:57:10;10.30;99.90
18260;DHT22;9256;52.236;5.712;2024-02-21T10:59:39;10.30;99.90
18260;DHT22;9256;52.236;5.712;2024-02-21T11:02:07;10.30;99.90
18260;DHT22;9256;52.236;5.712;2024-02-21T11:04:34;10.20;99.90
18260;DHT22;9256;52.236;5.712;2024-02-21T11:07:03;10.30;99.90
18260;DHT22;9256;52.236;5.712;2024-02-21T11:09:32;10.30;99.90
18260;DHT22;9256;52.236;5.712;2024-02-21T11:12:02;10.20;99.90
18260;DHT22;9256;52.236;5.712;2024-02-21T11:14:30;10.10;99.90
18260;DHT22;9256;52.236;5.712;2024-02-21T11:16:59;10.00;99.90
18260;DHT22;9256;52.236;5.712;2024-02-21T11:19:27;10.10;99.90
18260;DHT22;9256;52.236;5.712;2024-02-21T11:21:56;10.10;99.90
18260;DHT22;9256;52.236;5.712;2024-02-21T11:24:27;10.20;99.90
18260;DHT22;9256;52.236;5.712;2024-02-21T11:26:56;10.30;99.90
18260;DHT22;9256;52.236;5.712;2024-02-21T11:29:24;10.30;99.90
18260;DHT22;9256;52.236;5.712;2024-02-21T11:31:51;10.40;99.90
18260;DHT22;9256;52.236;5.712;2024-02-21T11:34:19;10.30;99.90
18260;DHT22;9256;52.236;5.712;2024-02-21T11:36:47;10.20;99.90
18260;DHT22;9256;52.236;5.712;2024-02-21T11:39:19;9.90;99.90
18260;DHT22;9256;52.236;5.712;2024-02-21T11:41:47;9.90;99.90
18260;DHT22;9256;52.236;5.712;2024-02-21T11:44:15;9.90;99.90
18260;DHT22;9256;52.236;5.712;2024-02-21T11:46:42;9.90;99.90
18260;DHT22;9256;52.236;5.712;2024-02-21T11:49:10;9.70;99.90
18260;DHT22;9256;52.236;5.712;2024-02-21T11:51:36;9.70;99.90
18260;DHT22;9256;52.236;5.712;2024-02-21T11:54:03;9.70;99.90
18260;DHT22;9256;52.236;5.712;2024-02-21T11:56:32;9.70;99.90
18260;DHT22;9256;52.236;5.712;2024-02-21T11:58:59;9.70;99.90
18260;DHT22;9256;52.236;5.712;2024-02-21T12:01:28;9.70;99.90
18260;DHT22;9256;52.236;5.712;2024-02-21T12:03:55;9.60;99.90
18260;DHT22;9256;52.236;5.712;2024-02-21T12:06:22;9.60;99.90
18260;DHT22;9256;52.236;5.712;2024-02-21T12:08:49;9.60;99.90
18260;DHT22;9256;52.236;5.712;2024-02-21T12:11:18;9.60;99.90
18260;DHT22;9256;52.236;5.712;2024-02-21T12:13:45;9.50;99.90
18260;DHT22;9256;52.236;5.712;2024-02-21T12:16:15;9.50;99.90
18260;DHT22;9256;52.236;5.712;2024-02-21T12:18:45;9.40;99.90
18260;DHT22;9256;52.236;5.712;2024-02-21T12:21:11;9.60;99.90
18260;DHT22;9256;52.236;5.712;2024-02-21T12:23:39;9.70;99.90
18260;DHT22;9256;52.236;5.712;2024-02-21T12:26:06;9.80;99.90
18260;DHT22;9256;52.236;5.712;2024-02-21T12:28:33;9.90;99.90
18260;DHT22;9256;52.236;5.712;2024-02-21T12:31:00;10.10;99.90
18260;DHT22;9256;52.236;5.712;2024-02-21T12:33:30;10.20;99.90
18260;DHT22;9256;52.236;5.712;2024-02-21T12:35:58;10.40;99.90
18260;DHT22;9256;52.236;5.712;2024-02-21T12:38:25;10.50;99.90
18260;DHT22;9256;52.236;5.712;2024-02-21T12:40:52;10.70;99.90
18260;DHT22;9256;52.236;5.712;2024-02-21T12:43:19;10.90;99.90
18260;DHT22;9256;52.236;5.712;2024-02-21T12:45:48;10.90;99.90
18260;DHT22;9256;52.236;5.712;2024-02-21T12:48:15;10.80;99.90
18260;DHT22;9256;52.236;5.712;2024-02-21T12:50:48;10.80;99.90
18260;DHT22;9256;52.236;5.712;2024-02-21T12:53:17;10.80;99.90
18260;DHT22;9256;52.236;5.712;2024-02-21T12:55:46;10.70;99.90
18260;DHT22;9256;52.236;5.712;2024-02-21T12:58:14;10.70;99.90
18260;DHT22;9256;52.236;5.712;2024-02-21T13:00:41;10.70;99.90
18260;DHT22;9256;52.236;5.712;2024-02-21T13:03:08;10.60;99.90
18260;DHT22;9256;52.236;5.712;2024-02-21T13:05:36;10.50;99.90
18260;DHT22;9256;52.236;5.712;2024-02-21T13:08:04;10.50;99.90
18260;DHT22;9256;52.236;5.712;2024-02-21T13:10:33;10.50;99.90
18260;DHT22;9256;52.236;5.712;2024-02-21T13:13:01;10.50;99.90
18260;DHT22;9256;52.236;5.712;2024-02-21T13:15:28;10.50;99.90
18260;DHT22;9256;52.236;5.712;2024-02-21T13:17:56;10.60;99.90
18260;DHT22;9256;52.236;5.712;2024-02-21T13:20:25;10.60;99.90
18260;DHT22;9256;52.236;5.712;2024-02-21T13:22:52;10.50;99.90
18260;DHT22;9256;52.236;5.712;2024-02-21T13:25:19;10.50;99.90
18260;DHT22;9256;52.236;5.712;2024-02-21T13:27:48;10.50;99.90
18260;DHT22;9256;52.236;5.712;2024-02-21T13:30:15;10.40;99.90
18260;DHT22;9256;52.236;5.712;2024-02-21T13:32:43;10.50;99.90
18260;DHT22;9256;52.236;5.712;2024-02-21T13:35:12;10.40;99.90
18260;DHT22;9256;52.236;5.712;2024-02-21T13:37:40;10.40;99.90
18260;DHT22;9256;52.236;5.712;2024-02-21T13:40:08;10.40;99.90
18260;DHT22;9256;52.236;5.712;2024-02-21T13:42:35;10.40;99.90
18260;DHT22;9256;52.236;5.712;2024-02-21T13:45:05;10.40;99.90
18260;DHT22;9256;52.236;5.712;2024-02-21T13:47:32;10.40;99.90
18260;DHT22;9256;52.236;5.712;2024-02-21T13:49:59;10.40;99.90
18260;DHT22;9256;52.236;5.712;2024-02-21T13:52:26;10.40;99.90
18260;DHT22;9256;52.236;5.712;2024-02-21T13:54:53;10.40;99.90
18260;DHT22;9256;52.236;5.712;2024-02-21T13:57:20;10.40;99.90
18260;DHT22;9256;52.236;5.712;2024-02-21T13:59:47;10.30;99.90
18260;DHT22;9256;52.236;5.712;2024-02-21T14:02:15;10.30;99.90
18260;DHT22;9256;52.236;5.712;2024-02-21T14:04:42;10.30;99.90
18260;DHT22;9256;52.236;5.712;2024-02-21T14:07:09;10.20;99.90
18260;DHT22;9256;52.236;5.712;2024-02-21T14:09:36;10.20;99.90
18260;DHT22;9256;52.236;5.712;2024-02-21T14:12:03;10.20;99.90
18260;DHT22;9256;52.236;5.712;2024-02-21T14:14:33;10.20;99.90
18260;DHT22;9256;52.236;5.712;2024-02-21T14:17:00;10.30;99.90
18260;DHT22;9256;52.236;5.712;2024-02-21T14:19:29;10.30;99.90
18260;DHT22;9256;52.236;5.712;2024-02-21T14:21:56;10.40;99.90
18260;DHT22;9256;52.236;5.712;2024-02-21T14:24:23;10.40;99.90
18260;DHT22;9256;52.236;5.712;2024-02-21T14:26:50;10.30;99.90
18260;DHT22;9256;52.236;5.712;2024-02-21T14:29:17;10.30;99.90
18260;DHT22;9256;52.236;5.712;2024-02-21T14:31:44;10.30;99.90
18260;DHT22;9256;52.236;5.712;2024-02-21T14:34:10;10.30;99.90
18260;DHT22;9256;52.236;5.712;2024-02-21T14:36:39;10.30;99.90
18260;DHT22;9256;52.236;5.712;2024-02-21T14:39:07;10.30;99.90
18260;DHT22;9256;52.236;5.712;2024-02-21T14:41:34;10.30;99.90
18260;DHT22;9256;52.236;5.712;2024-02-21T14:44:02;10.30;99.90
18260;DHT22;9256;52.236;5.712;2024-02-21T14:46:29;10.30;99.90
18260;DHT22;9256;52.236;5.712;2024-02-21T14:48:56;10.30;99.90
18260;DHT22;9256;52.236;5.712;2024-02-21T14:51:23;10.30;99.90
18260;DHT22;9256;52.236;5.712;2024-02-21T14:53:51;10.30;99.90
18260;DHT22;9256;52.236;5.712;2024-02-21T14:56:20;10.40;99.90
18260;DHT22;9256;52.236;5.712;2024-02-21T14:58:48;10.30;99.90
18260;DHT22;9256;52.236;5.712;2024-02-21T15:01:15;10.30;99.90
18260;DHT22;9256;52.236;5.712;2024-02-21T15:03:45;10.30;99.90
18260;DHT22;9256;52.236;5.712;2024-02-21T15:06:12;10.30;99.90
18260;DHT22;9256;52.236;5.712;2024-02-21T15:08:39;10.30;99.90
18260;DHT22;9256;52.236;5.712;2024-02-21T15:11:08;10.30;99.90
18260;DHT22;9256;52.236;5.712;2024-02-21T15:13:35;10.20;99.90
18260;DHT22;9256;52.236;5.712;2024-02-21T15:16:03;10.10;99.90
18260;DHT22;9256;52.236;5.712;2024-02-21T15:18:30;10.10;99.90
18260;DHT22;9256;52.236;5.712;2024-02-21T15:20:58;10.00;99.90
18260;DHT22;9256;52.236;5.712;2024-02-21T15:23:25;10.00;99.90
18260;DHT22;9256;52.236;5.712;2024-02-21T15:25:52;10.00;99.90
18260;DHT22;9256;52.236;5.712;2024-02-21T15:28:20;9.90;99.90
18260;DHT22;9256;52.236;5.712;2024-02-21T15:30:49;9.80;99.90
18260;DHT22;9256;52.236;5.712;2024-02-21T15:33:16;9.70;99.90
18260;DHT22;9256;52.236;5.712;2024-02-21T15:35:43;9.60;99.90
18260;DHT22;9256;52.236;5.712;2024-02-21T15:38:10;9.50;99.90
18260;DHT22;9256;52.236;5.712;2024-02-21T15:40:37;9.50;99.90
18260;DHT22;9256;52.236;5.712;2024-02-21T15:43:04;9.40;99.90
18260;DHT22;9256;52.236;5.712;2024-02-21T15:45:33;9.40;99.90
18260;DHT22;9256;52.236;5.712;2024-02-21T15:48:00;9.40;99.90
18260;DHT22;9256;52.236;5.712;2024-02-21T15:50:26;9.30;99.90
18260;DHT22;9256;52.236;5.712;2024-02-21T15:52:55;9.30;99.90
18260;DHT22;9256;52.236;5.712;2024-02-21T15:55:22;9.20;99.90
18260;DHT22;9256;52.236;5.712;2024-02-21T15:57:49;9.20;99.90
18260;DHT22;9256;52.236;5.712;2024-02-21T16:00:17;9.20;99.90